sensor_id;sensor_type;location;lat;lon;timestamp;pressure;altitude;pressure_sealevel;temperature;humidity
70072;BME280;57434;42.794;23.302;2023-04-08T00:00:18;95766.53;;;3.10;77.17
70072;BME280;57434;42.794;23.302;2023-04-08T00:01:20;95748.56;;;3.02;77.09
70072;BME280;57434;42.794;23.302;2023-04-08T00:02:22;95773.97;;;3.13;77.21
70072;BME280;57434;42.794;23.302;2023-04-08T00:03:24;95758.78;;;3.05;77.06
70072;BME280;57434;42.794;23.302;2023-04-08T00:04:26;95731.94;;;3.02;76.87
70072;BME280;57434;42.794;23.302;2023-04-08T00:05:28;95766.22;;;3.21;76.88
70072;BME280;57434;42.794;23.302;2023-04-08T00:06:30;95785.31;;;3.31;76.97
70072;BME280;57434;42.794;23.302;2023-04-08T00:07:31;95759.16;;;3.32;76.81
70072;BME280;57434;42.794;23.302;2023-04-08T00:08:33;95604.25;;;2.29;76.71
70072;BME280;57434;42.794;23.302;2023-04-08T00:09:35;95604.47;;;2.22;76.37
70072;BME280;57434;42.794;23.302;2023-04-08T00:10:36;95601.47;;;2.29;76.51
70072;BME280;57434;42.794;23.302;2023-04-08T00:11:38;95765.22;;;3.40;76.47
70072;BME280;57434;42.794;23.302;2023-04-08T00:12:40;95766.25;;;3.33;76.35
70072;BME280;57434;42.794;23.302;2023-04-08T00:13:42;95775.00;;;3.32;76.64
70072;BME280;57434;42.794;23.302;2023-04-08T00:14:43;95585.81;;;2.10;76.43
70072;BME280;57434;42.794;23.302;2023-04-08T00:15:45;95761.75;;;3.11;76.60
70072;BME280;57434;42.794;23.302;2023-04-08T00:16:47;95750.91;;;3.16;76.37
70072;BME280;57434;42.794;23.302;2023-04-08T00:17:48;95634.69;;;2.29;76.53
70072;BME280;57434;42.794;23.302;2023-04-08T00:18:50;95598.97;;;2.06;76.52
70072;BME280;57434;42.794;23.302;2023-04-08T00:19:52;95759.09;;;3.07;76.78
70072;BME280;57434;42.794;23.302;2023-04-08T00:20:54;95757.44;;;3.10;76.90
70072;BME280;57434;42.794;23.302;2023-04-08T00:21:56;95590.16;;;2.11;76.72
70072;BME280;57434;42.794;23.302;2023-04-08T00:22:58;95754.19;;;2.98;76.47
70072;BME280;57434;42.794;23.302;2023-04-08T00:23:59;95759.56;;;3.18;76.34
70072;BME280;57434;42.794;23.302;2023-04-08T00:25:01;95725.16;;;3.03;76.44
70072;BME280;57434;42.794;23.302;2023-04-08T00:26:03;95757.78;;;3.24;76.27
70072;BME280;57434;42.794;23.302;2023-04-08T00:27:04;95743.81;;;3.15;75.96
70072;BME280;57434;42.794;23.302;2023-04-08T00:28:06;95701.94;;;2.84;76.10
70072;BME280;57434;42.794;23.302;2023-04-08T00:29:08;95749.25;;;3.19;76.18
70072;BME280;57434;42.794;23.302;2023-04-08T00:30:10;95760.91;;;3.26;76.45
70072;BME280;57434;42.794;23.302;2023-04-08T00:31:11;95741.47;;;3.14;76.42
70072;BME280;57434;42.794;23.302;2023-04-08T00:32:13;95775.06;;;3.16;76.62
70072;BME280;57434;42.794;23.302;2023-04-08T00:33:15;95761.44;;;3.08;76.66
70072;BME280;57434;42.794;23.302;2023-04-08T00:34:17;95758.56;;;3.25;76.73
70072;BME280;57434;42.794;23.302;2023-04-08T00:35:18;95671.00;;;2.60;76.66
70072;BME280;57434;42.794;23.302;2023-04-08T00:36:20;95705.53;;;2.97;76.47
70072;BME280;57434;42.794;23.302;2023-04-08T00:37:22;95746.03;;;3.20;76.31
70072;BME280;57434;42.794;23.302;2023-04-08T00:38:24;95758.47;;;3.28;76.07
70072;BME280;57434;42.794;23.302;2023-04-08T00:39:25;95753.16;;;3.34;75.83
70072;BME280;57434;42.794;23.302;2023-04-08T00:40:27;95764.16;;;3.37;75.82
70072;BME280;57434;42.794;23.302;2023-04-08T00:41:29;95739.41;;;3.30;75.66
70072;BME280;57434;42.794;23.302;2023-04-08T00:42:30;95765.22;;;3.40;75.86
70072;BME280;57434;42.794;23.302;2023-04-08T00:43:32;95660.25;;;2.62;75.75
70072;BME280;57434;42.794;23.302;2023-04-08T00:44:34;95678.56;;;2.85;75.66
70072;BME280;57434;42.794;23.302;2023-04-08T00:45:36;95732.63;;;3.31;75.34
70072;BME280;57434;42.794;23.302;2023-04-08T00:46:38;95734.97;;;3.33;74.64
70072;BME280;57434;42.794;23.302;2023-04-08T00:47:40;95759.47;;;3.47;74.26
70072;BME280;57434;42.794;23.302;2023-04-08T00:48:42;95757.91;;;3.46;74.19
70072;BME280;57434;42.794;23.302;2023-04-08T00:49:44;95769.69;;;3.50;74.32
70072;BME280;57434;42.794;23.302;2023-04-08T00:50:46;95627.31;;;2.39;74.79
70072;BME280;57434;42.794;23.302;2023-04-08T00:51:48;95547.00;;;1.72;75.46
70072;BME280;57434;42.794;23.302;2023-04-08T00:52:49;95761.00;;;3.10;75.34
70072;BME280;57434;42.794;23.302;2023-04-08T00:53:51;95760.44;;;3.15;75.34
70072;BME280;57434;42.794;23.302;2023-04-08T00:54:54;95618.94;;;2.14;75.34
70072;BME280;57434;42.794;23.302;2023-04-08T00:55:56;95748.66;;;2.98;75.65
70072;BME280;57434;42.794;23.302;2023-04-08T00:56:58;95652.47;;;2.45;75.34
70072;BME280;57434;42.794;23.302;2023-04-08T00:58:00;95763.16;;;2.90;75.32
70072;BME280;57434;42.794;23.302;2023-04-08T00:59:02;95763.94;;;2.90;76.40
70072;BME280;57434;42.794;23.302;2023-04-08T01:00:05;95618.44;;;2.02;76.09
70072;BME280;57434;42.794;23.302;2023-04-08T01:01:13;95724.25;;;2.81;75.86
70072;BME280;57434;42.794;23.302;2023-04-08T01:02:35;95762.09;;;3.00;75.62
70072;BME280;57434;42.794;23.302;2023-04-08T01:04:06;95641.41;;;2.16;75.49
70072;BME280;57434;42.794;23.302;2023-04-08T01:05:59;95764.72;;;2.91;75.79
70072;BME280;57434;42.794;23.302;2023-04-08T01:07:14;95676.19;;;2.46;75.59
70072;BME280;57434;42.794;23.302;2023-04-08T01:08:17;95742.53;;;2.91;75.07
70072;BME280;57434;42.794;23.302;2023-04-08T01:09:55;95756.03;;;2.76;75.44
70072;BME280;57434;42.794;23.302;2023-04-08T01:11:00;95632.84;;;1.81;76.53
70072;BME280;57434;42.794;23.302;2023-04-08T01:12:05;95786.25;;;2.70;76.84
70072;BME280;57434;42.794;23.302;2023-04-08T01:13:11;95597.84;;;1.46;77.00
70072;BME280;57434;42.794;23.302;2023-04-08T01:14:19;95604.47;;;1.64;77.29
70072;BME280;57434;42.794;23.302;2023-04-08T01:15:24;95765.56;;;2.75;77.28
70072;BME280;57434;42.794;23.302;2023-04-08T01:16:27;95633.28;;;1.96;77.01
70072;BME280;57434;42.794;23.302;2023-04-08T01:17:30;95633.75;;;2.07;76.94
70072;BME280;57434;42.794;23.302;2023-04-08T01:18:34;95640.31;;;2.13;76.58
70072;BME280;57434;42.794;23.302;2023-04-08T01:19:38;95774.81;;;2.97;76.76
70072;BME280;57434;42.794;23.302;2023-04-08T01:20:41;95739.94;;;2.42;76.81
70072;BME280;57434;42.794;23.302;2023-04-08T01:21:43;95764.09;;;2.70;77.13
70072;BME280;57434;42.794;23.302;2023-04-08T01:23:02;95772.06;;;2.97;76.88
70072;BME280;57434;42.794;23.302;2023-04-08T01:24:22;95772.19;;;3.06;75.91
70072;BME280;57434;42.794;23.302;2023-04-08T01:25:30;95622.81;;;2.16;74.34
70072;BME280;57434;42.794;23.302;2023-04-08T01:26:32;95654.13;;;2.42;73.89
70072;BME280;57434;42.794;23.302;2023-04-08T01:27:34;95763.53;;;3.04;74.10
70072;BME280;57434;42.794;23.302;2023-04-08T01:28:38;95775.31;;;3.21;74.14
70072;BME280;57434;42.794;23.302;2023-04-08T01:29:42;95764.66;;;3.07;73.73
70072;BME280;57434;42.794;23.302;2023-04-08T01:30:45;95776.72;;;3.13;73.21
70072;BME280;57434;42.794;23.302;2023-04-08T01:31:48;95608.44;;;2.21;72.71
70072;BME280;57434;42.794;23.302;2023-04-08T01:32:54;95639.06;;;2.43;72.07
70072;BME280;57434;42.794;23.302;2023-04-08T01:33:57;95773.34;;;3.34;72.02
70072;BME280;57434;42.794;23.302;2023-04-08T01:35:01;95771.78;;;3.33;72.04
70072;BME280;57434;42.794;23.302;2023-04-08T01:36:04;95769.88;;;3.18;72.62
70072;BME280;57434;42.794;23.302;2023-04-08T01:37:07;95782.31;;;3.26;73.10
70072;BME280;57434;42.794;23.302;2023-04-08T01:38:14;95773.66;;;3.24;73.54
70072;BME280;57434;42.794;23.302;2023-04-08T01:39:18;95640.38;;;2.38;73.39
70072;BME280;57434;42.794;23.302;2023-04-08T01:40:21;95768.53;;;3.10;73.90
70072;BME280;57434;42.794;23.302;2023-04-08T01:41:22;95778.53;;;3.20;74.19
70072;BME280;57434;42.794;23.302;2023-04-08T01:42:26;95764.75;;;3.16;74.65
70072;BME280;57434;42.794;23.302;2023-04-08T01:43:29;95626.72;;;2.31;74.78
70072;BME280;57434;42.794;23.302;2023-04-08T01:44:31;95773.75;;;3.20;74.87
70072;BME280;57434;42.794;23.302;2023-04-08T01:45:33;95774.09;;;3.22;74.52
70072;BME280;57434;42.794;23.302;2023-04-08T01:46:35;95781.63;;;3.09;74.52
70072;BME280;57434;42.794;23.302;2023-04-08T01:47:38;95629.28;;;2.26;74.62
70072;BME280;57434;42.794;23.302;2023-04-08T01:48:41;95606.16;;;2.03;74.29
70072;BME280;57434;42.794;23.302;2023-04-08T01:49:44;95609.16;;;1.96;74.62
70072;BME280;57434;42.794;23.302;2023-04-08T01:50:46;95779.50;;;3.13;74.98
70072;BME280;57434;42.794;23.302;2023-04-08T01:51:50;95715.59;;;2.79;74.87
70072;BME280;57434;42.794;23.302;2023-04-08T01:52:54;95742.63;;;2.87;74.59
70072;BME280;57434;42.794;23.302;2023-04-08T01:53:57;95772.31;;;3.16;74.53
70072;BME280;57434;42.794;23.302;2023-04-08T01:54:59;95791.16;;;3.08;74.05
70072;BME280;57434;42.794;23.302;2023-04-08T01:56:06;95676.50;;;2.48;73.89
70072;BME280;57434;42.794;23.302;2023-04-08T01:57:13;95791.09;;;2.95;74.08
70072;BME280;57434;42.794;23.302;2023-04-08T01:58:20;95776.72;;;3.13;74.45
70072;BME280;57434;42.794;23.302;2023-04-08T01:59:23;95787.19;;;3.22;74.57
70072;BME280;57434;42.794;23.302;2023-04-08T02:00:30;95759.88;;;3.07;74.49
70072;BME280;57434;42.794;23.302;2023-04-08T02:01:34;95777.75;;;3.19;74.65
70072;BME280;57434;42.794;23.302;2023-04-08T02:02:37;95641.56;;;2.25;75.08
70072;BME280;57434;42.794;23.302;2023-04-08T02:03:42;95774.03;;;2.97;75.64
70072;BME280;57434;42.794;23.302;2023-04-08T02:04:45;95769.84;;;3.05;75.64
70072;BME280;57434;42.794;23.302;2023-04-08T02:05:47;95615.13;;;1.95;75.83
70072;BME280;57434;42.794;23.302;2023-04-08T02:06:49;95703.09;;;2.45;76.31
70072;BME280;57434;42.794;23.302;2023-04-08T02:07:50;95630.41;;;1.99;76.50
70072;BME280;57434;42.794;23.302;2023-04-08T02:08:53;95794.31;;;2.94;76.71
70072;BME280;57434;42.794;23.302;2023-04-08T02:09:55;95801.22;;;3.02;76.71
70072;BME280;57434;42.794;23.302;2023-04-08T02:10:57;95636.94;;;2.05;76.69
70072;BME280;57434;42.794;23.302;2023-04-08T02:11:59;95751.28;;;2.77;76.73
70072;BME280;57434;42.794;23.302;2023-04-08T02:13:01;95792.72;;;3.09;77.03
70072;BME280;57434;42.794;23.302;2023-04-08T02:14:03;95800.69;;;3.07;77.33
70072;BME280;57434;42.794;23.302;2023-04-08T02:15:05;95788.47;;;3.04;77.23
70072;BME280;57434;42.794;23.302;2023-04-08T02:16:42;95794.91;;;3.14;77.21
70072;BME280;57434;42.794;23.302;2023-04-08T02:17:55;95802.44;;;3.01;77.23
70072;BME280;57434;42.794;23.302;2023-04-08T02:19:10;95806.00;;;3.14;76.65
70072;BME280;57434;42.794;23.302;2023-04-08T02:21:21;95668.84;;;2.39;75.75
70072;BME280;57434;42.794;23.302;2023-04-08T02:22:46;95784.16;;;3.16;75.67
70072;BME280;57434;42.794;23.302;2023-04-08T02:23:49;95784.94;;;3.17;75.53
70072;BME280;57434;42.794;23.302;2023-04-08T02:24:52;95638.13;;;2.21;74.88
70072;BME280;57434;42.794;23.302;2023-04-08T02:25:55;95811.34;;;3.21;75.52
70072;BME280;57434;42.794;23.302;2023-04-08T02:26:57;95665.03;;;2.33;75.41
70072;BME280;57434;42.794;23.302;2023-04-08T02:28:03;95787.81;;;3.13;75.41
70072;BME280;57434;42.794;23.302;2023-04-08T02:29:11;95808.38;;;3.28;75.47
70072;BME280;57434;42.794;23.302;2023-04-08T02:30:14;95810.81;;;3.26;75.44
70072;BME280;57434;42.794;23.302;2023-04-08T02:31:18;95807.50;;;3.31;75.09
70072;BME280;57434;42.794;23.302;2023-04-08T02:32:22;95658.06;;;2.28;75.19
70072;BME280;57434;42.794;23.302;2023-04-08T02:33:24;95652.84;;;2.30;75.07
70072;BME280;57434;42.794;23.302;2023-04-08T02:34:29;95802.63;;;3.35;75.08
70072;BME280;57434;42.794;23.302;2023-04-08T02:35:31;95833.34;;;3.41;75.08
70072;BME280;57434;42.794;23.302;2023-04-08T02:36:34;95815.38;;;3.46;75.03
70072;BME280;57434;42.794;23.302;2023-04-08T02:37:36;95770.44;;;3.25;75.31
70072;BME280;57434;42.794;23.302;2023-04-08T02:38:37;95815.81;;;3.44;75.86
70072;BME280;57434;42.794;23.302;2023-04-08T02:39:39;95790.31;;;3.36;75.55
70072;BME280;57434;42.794;23.302;2023-04-08T02:40:41;95795.53;;;3.34;75.64
70072;BME280;57434;42.794;23.302;2023-04-08T02:41:43;95762.75;;;3.17;76.09
70072;BME280;57434;42.794;23.302;2023-04-08T02:42:45;95799.97;;;3.32;76.29
70072;BME280;57434;42.794;23.302;2023-04-08T02:43:46;95770.19;;;3.07;76.50
70072;BME280;57434;42.794;23.302;2023-04-08T02:44:49;95676.50;;;2.48;76.60
70072;BME280;57434;42.794;23.302;2023-04-08T02:45:51;95797.28;;;3.28;76.76
70072;BME280;57434;42.794;23.302;2023-04-08T02:46:53;95760.97;;;2.97;77.14
70072;BME280;57434;42.794;23.302;2023-04-08T02:47:55;95765.91;;;2.90;77.60
70072;BME280;57434;42.794;23.302;2023-04-08T02:48:57;95802.34;;;3.17;78.01
70072;BME280;57434;42.794;23.302;2023-04-08T02:49:58;95806.00;;;3.14;77.87
70072;BME280;57434;42.794;23.302;2023-04-08T02:51:00;95795.44;;;2.96;78.37
70072;BME280;57434;42.794;23.302;2023-04-08T02:52:02;95801.59;;;2.88;78.70
70072;BME280;57434;42.794;23.302;2023-04-08T02:53:04;95817.16;;;2.98;79.06
70072;BME280;57434;42.794;23.302;2023-04-08T02:54:06;95789.56;;;2.94;79.05
70072;BME280;57434;42.794;23.302;2023-04-08T02:55:08;95689.09;;;2.36;79.11
70072;BME280;57434;42.794;23.302;2023-04-08T02:56:10;95834.75;;;3.20;79.13
70072;BME280;57434;42.794;23.302;2023-04-08T02:57:12;95805.88;;;3.05;79.02
70072;BME280;57434;42.794;23.302;2023-04-08T02:58:13;95779.16;;;2.98;79.27
70072;BME280;57434;42.794;23.302;2023-04-08T02:59:15;95793.63;;;2.90;79.38
70072;BME280;57434;42.794;23.302;2023-04-08T03:00:17;95818.66;;;3.15;79.46
70072;BME280;57434;42.794;23.302;2023-04-08T03:01:19;95791.81;;;3.12;79.44
70072;BME280;57434;42.794;23.302;2023-04-08T03:02:21;95797.78;;;3.11;79.26
70072;BME280;57434;42.794;23.302;2023-04-08T03:03:22;95730.84;;;2.70;79.07
70072;BME280;57434;42.794;23.302;2023-04-08T03:04:24;95723.44;;;2.67;79.16
70072;BME280;57434;42.794;23.302;2023-04-08T03:05:26;95688.47;;;2.45;78.93
70072;BME280;57434;42.794;23.302;2023-04-08T03:06:28;95794.03;;;3.04;79.24
70072;BME280;57434;42.794;23.302;2023-04-08T03:07:30;95821.22;;;3.10;78.77
70072;BME280;57434;42.794;23.302;2023-04-08T03:08:32;95803.91;;;3.05;78.96
70072;BME280;57434;42.794;23.302;2023-04-08T03:09:34;95709.56;;;2.55;79.16
70072;BME280;57434;42.794;23.302;2023-04-08T03:10:36;95799.03;;;3.22;79.13
70072;BME280;57434;42.794;23.302;2023-04-08T03:11:38;95665.16;;;2.29;79.01
70072;BME280;57434;42.794;23.302;2023-04-08T03:12:39;95804.56;;;3.10;79.08
70072;BME280;57434;42.794;23.302;2023-04-08T03:13:41;95805.66;;;3.12;79.24
70072;BME280;57434;42.794;23.302;2023-04-08T03:14:43;95796.47;;;3.02;79.50
70072;BME280;57434;42.794;23.302;2023-04-08T03:15:45;95681.22;;;2.34;79.70
70072;BME280;57434;42.794;23.302;2023-04-08T03:16:47;95791.00;;;2.99;79.87
70072;BME280;57434;42.794;23.302;2023-04-08T03:17:48;95801.91;;;3.06;79.75
70072;BME280;57434;42.794;23.302;2023-04-08T03:18:51;95615.66;;;1.90;79.66
70072;BME280;57434;42.794;23.302;2023-04-08T03:19:53;95796.69;;;3.08;79.85
70072;BME280;57434;42.794;23.302;2023-04-08T03:20:55;95796.56;;;2.99;80.11
70072;BME280;57434;42.794;23.302;2023-04-08T03:21:56;95779.44;;;2.88;80.13
70072;BME280;57434;42.794;23.302;2023-04-08T03:22:58;95801.25;;;2.86;80.23
70072;BME280;57434;42.794;23.302;2023-04-08T03:24:00;95794.38;;;3.06;80.18
70072;BME280;57434;42.794;23.302;2023-04-08T03:25:02;95779.69;;;2.93;80.10
70072;BME280;57434;42.794;23.302;2023-04-08T03:26:04;95802.63;;;2.94;80.27
70072;BME280;57434;42.794;23.302;2023-04-08T03:27:06;95825.47;;;2.98;80.28
70072;BME280;57434;42.794;23.302;2023-04-08T03:28:07;95790.19;;;2.86;80.59
70072;BME280;57434;42.794;23.302;2023-04-08T03:29:09;95643.06;;;1.84;80.68
70072;BME280;57434;42.794;23.302;2023-04-08T03:30:11;95617.22;;;1.75;80.53
70072;BME280;57434;42.794;23.302;2023-04-08T03:31:13;95794.56;;;2.99;80.19
70072;BME280;57434;42.794;23.302;2023-04-08T03:32:15;95782.09;;;2.79;80.30
70072;BME280;57434;42.794;23.302;2023-04-08T03:33:17;95727.03;;;2.52;80.59
70072;BME280;57434;42.794;23.302;2023-04-08T03:34:18;95785.84;;;2.85;80.63
70072;BME280;57434;42.794;23.302;2023-04-08T03:35:20;95773.56;;;2.86;80.57
70072;BME280;57434;42.794;23.302;2023-04-08T03:36:22;95824.94;;;3.03;80.45
70072;BME280;57434;42.794;23.302;2023-04-08T03:37:24;95736.25;;;2.61;80.22
70072;BME280;57434;42.794;23.302;2023-04-08T03:38:26;95786.63;;;2.85;80.56
70072;BME280;57434;42.794;23.302;2023-04-08T03:39:27;95788.88;;;2.90;80.58
70072;BME280;57434;42.794;23.302;2023-04-08T03:40:29;95639.06;;;1.85;80.68
70072;BME280;57434;42.794;23.302;2023-04-08T03:41:31;95697.47;;;2.20;80.75
70072;BME280;57434;42.794;23.302;2023-04-08T03:42:33;95829.13;;;2.95;80.65
70072;BME280;57434;42.794;23.302;2023-04-08T03:43:35;95802.47;;;2.85;80.55
70072;BME280;57434;42.794;23.302;2023-04-08T03:44:38;95722.13;;;2.43;80.28
70072;BME280;57434;42.794;23.302;2023-04-08T03:45:40;95808.03;;;2.85;79.75
70072;BME280;57434;42.794;23.302;2023-04-08T03:46:42;95800.41;;;2.89;79.18
70072;BME280;57434;42.794;23.302;2023-04-08T03:47:44;95826.25;;;2.98;78.97
70072;BME280;57434;42.794;23.302;2023-04-08T03:48:46;95686.91;;;2.15;79.09
70072;BME280;57434;42.794;23.302;2023-04-08T03:49:47;95798.97;;;2.97;79.24
70072;BME280;57434;42.794;23.302;2023-04-08T03:50:49;95803.31;;;2.98;79.22
70072;BME280;57434;42.794;23.302;2023-04-08T03:51:51;95784.63;;;2.73;79.24
70072;BME280;57434;42.794;23.302;2023-04-08T03:52:53;95798.50;;;2.86;79.23
70072;BME280;57434;42.794;23.302;2023-04-08T03:53:55;95794.84;;;2.89;78.97
70072;BME280;57434;42.794;23.302;2023-04-08T03:54:56;95795.19;;;2.91;78.76
70072;BME280;57434;42.794;23.302;2023-04-08T03:55:58;95648.41;;;1.91;78.19
70072;BME280;57434;42.794;23.302;2023-04-08T03:57:00;95708.56;;;2.32;78.02
70072;BME280;57434;42.794;23.302;2023-04-08T03:58:02;95646.59;;;1.85;78.04
70072;BME280;57434;42.794;23.302;2023-04-08T03:59:04;95807.50;;;2.90;78.38
70072;BME280;57434;42.794;23.302;2023-04-08T04:00:06;95674.47;;;2.06;78.15
70072;BME280;57434;42.794;23.302;2023-04-08T04:01:08;95814.47;;;2.82;78.00
70072;BME280;57434;42.794;23.302;2023-04-08T04:02:10;95810.25;;;2.90;77.78
70072;BME280;57434;42.794;23.302;2023-04-08T04:03:12;95786.94;;;2.74;77.41
70072;BME280;57434;42.794;23.302;2023-04-08T04:04:14;95757.28;;;2.59;77.47
70072;BME280;57434;42.794;23.302;2023-04-08T04:05:16;95778.88;;;2.80;77.55
70072;BME280;57434;42.794;23.302;2023-04-08T04:06:18;95800.47;;;2.85;77.67
70072;BME280;57434;42.794;23.302;2023-04-08T04:07:19;95634.84;;;1.81;77.56
70072;BME280;57434;42.794;23.302;2023-04-08T04:08:21;95802.03;;;2.86;77.68
70072;BME280;57434;42.794;23.302;2023-04-08T04:09:23;95754.19;;;2.57;77.88
70072;BME280;57434;42.794;23.302;2023-04-08T04:10:25;95793.63;;;2.90;77.86
70072;BME280;57434;42.794;23.302;2023-04-08T04:11:27;95721.34;;;2.14;78.12
70072;BME280;57434;42.794;23.302;2023-04-08T04:12:28;95685.00;;;2.12;78.10
70072;BME280;57434;42.794;23.302;2023-04-08T04:13:30;95804.72;;;2.90;77.89
70072;BME280;57434;42.794;23.302;2023-04-08T04:14:32;95797.19;;;2.90;77.57
70072;BME280;57434;42.794;23.302;2023-04-08T04:15:40;95800.28;;;2.80;77.44
70072;BME280;57434;42.794;23.302;2023-04-08T04:16:42;95816.34;;;2.85;77.71
70072;BME280;57434;42.794;23.302;2023-04-08T04:17:47;95718.34;;;2.37;77.92
70072;BME280;57434;42.794;23.302;2023-04-08T04:18:49;95816.63;;;3.03;78.16
70072;BME280;57434;42.794;23.302;2023-04-08T04:19:53;95806.63;;;2.93;78.22
70072;BME280;57434;42.794;23.302;2023-04-08T04:20:55;95656.41;;;2.02;78.06
70072;BME280;57434;42.794;23.302;2023-04-08T04:21:56;95676.63;;;2.15;78.08
70072;BME280;57434;42.794;23.302;2023-04-08T04:22:58;95660.63;;;2.06;78.19
70072;BME280;57434;42.794;23.302;2023-04-08T04:24:00;95660.34;;;2.17;77.82
70072;BME280;57434;42.794;23.302;2023-04-08T04:25:02;95798.88;;;3.00;77.32
70072;BME280;57434;42.794;23.302;2023-04-08T04:26:08;95808.88;;;3.11;77.00
70072;BME280;57434;42.794;23.302;2023-04-08T04:27:10;95804.44;;;3.13;76.76
70072;BME280;57434;42.794;23.302;2023-04-08T04:28:11;95791.50;;;3.10;76.22
70072;BME280;57434;42.794;23.302;2023-04-08T04:29:13;95657.50;;;2.21;76.13
70072;BME280;57434;42.794;23.302;2023-04-08T04:30:15;95806.34;;;3.16;76.36
70072;BME280;57434;42.794;23.302;2023-04-08T04:31:20;95827.66;;;3.19;77.19
70072;BME280;57434;42.794;23.302;2023-04-08T04:32:22;95796.47;;;3.02;77.67
70072;BME280;57434;42.794;23.302;2023-04-08T04:33:24;95668.47;;;2.24;77.77
70072;BME280;57434;42.794;23.302;2023-04-08T04:34:26;95812.25;;;2.89;78.22
70072;BME280;57434;42.794;23.302;2023-04-08T04:35:28;95794.13;;;3.01;77.95
70072;BME280;57434;42.794;23.302;2023-04-08T04:36:29;95689.44;;;2.38;78.13
70072;BME280;57434;42.794;23.302;2023-04-08T04:37:31;95819.56;;;3.25;78.26
70072;BME280;57434;42.794;23.302;2023-04-08T04:38:33;95673.91;;;2.28;77.76
70072;BME280;57434;42.794;23.302;2023-04-08T04:39:35;95816.91;;;3.21;77.66
70072;BME280;57434;42.794;23.302;2023-04-08T04:40:39;95661.47;;;2.20;77.64
70072;BME280;57434;42.794;23.302;2023-04-08T04:41:41;95704.50;;;2.37;77.57
70072;BME280;57434;42.794;23.302;2023-04-08T04:42:43;95815.69;;;3.22;77.95
70072;BME280;57434;42.794;23.302;2023-04-08T04:43:45;95816.09;;;3.08;78.21
70072;BME280;57434;42.794;23.302;2023-04-08T04:44:47;95840.19;;;3.24;78.25
70072;BME280;57434;42.794;23.302;2023-04-08T04:45:48;95828.28;;;3.11;78.55
70072;BME280;57434;42.794;23.302;2023-04-08T04:46:50;95815.34;;;3.20;78.28
70072;BME280;57434;42.794;23.302;2023-04-08T04:47:52;95793.78;;;3.12;78.41
70072;BME280;57434;42.794;23.302;2023-04-08T04:48:54;95830.22;;;3.26;78.11
70072;BME280;57434;42.794;23.302;2023-04-08T04:49:56;95659.81;;;2.22;78.69
70072;BME280;57434;42.794;23.302;2023-04-08T04:50:59;95822.91;;;3.32;79.11
70072;BME280;57434;42.794;23.302;2023-04-08T04:52:01;95788.06;;;3.19;78.92
70072;BME280;57434;42.794;23.302;2023-04-08T04:53:02;95839.47;;;3.36;78.76
70072;BME280;57434;42.794;23.302;2023-04-08T04:54:04;95819.47;;;3.28;78.52
70072;BME280;57434;42.794;23.302;2023-04-08T04:55:06;95824.25;;;3.40;78.27
70072;BME280;57434;42.794;23.302;2023-04-08T04:56:08;95804.81;;;3.28;78.31
70072;BME280;57434;42.794;23.302;2023-04-08T04:57:10;95789.16;;;3.21;78.66
70072;BME280;57434;42.794;23.302;2023-04-08T04:58:12;95810.56;;;3.21;78.85
70072;BME280;57434;42.794;23.302;2023-04-08T04:59:14;95807.84;;;3.33;78.70
70072;BME280;57434;42.794;23.302;2023-04-08T05:00:16;95815.59;;;3.38;78.84
70072;BME280;57434;42.794;23.302;2023-04-08T05:01:17;95685.72;;;2.57;78.65
70072;BME280;57434;42.794;23.302;2023-04-08T05:02:19;95833.34;;;3.41;78.58
70072;BME280;57434;42.794;23.302;2023-04-08T05:03:21;95817.38;;;3.45;78.50
70072;BME280;57434;42.794;23.302;2023-04-08T05:04:24;95764.75;;;3.03;77.97
70072;BME280;57434;42.794;23.302;2023-04-08T05:05:26;95803.28;;;3.39;77.86
70072;BME280;57434;42.794;23.302;2023-04-08T05:06:28;95813.19;;;3.53;77.61
70072;BME280;57434;42.794;23.302;2023-04-08T05:07:29;95651.72;;;2.57;77.46
70072;BME280;57434;42.794;23.302;2023-04-08T05:08:31;95788.75;;;3.48;77.49
70072;BME280;57434;42.794;23.302;2023-04-08T05:09:33;95799.66;;;3.55;77.29
70072;BME280;57434;42.794;23.302;2023-04-08T05:10:35;95664.25;;;2.61;76.92
70072;BME280;57434;42.794;23.302;2023-04-08T05:11:37;95818.94;;;3.33;77.39
70072;BME280;57434;42.794;23.302;2023-04-08T05:12:38;95688.78;;;2.76;77.52
70072;BME280;57434;42.794;23.302;2023-04-08T05:13:40;95817.06;;;3.68;77.25
70072;BME280;57434;42.794;23.302;2023-04-08T05:14:42;95808.75;;;3.56;77.40
70072;BME280;57434;42.794;23.302;2023-04-08T05:15:44;95706.84;;;2.93;76.84
70072;BME280;57434;42.794;23.302;2023-04-08T05:16:47;95824.41;;;3.75;76.82
70072;BME280;57434;42.794;23.302;2023-04-08T05:17:48;95742.81;;;3.22;76.76
70072;BME280;57434;42.794;23.302;2023-04-08T05:18:51;95834.06;;;3.83;77.15
70072;BME280;57434;42.794;23.302;2023-04-08T05:19:53;95826.63;;;3.80;76.95
70072;BME280;57434;42.794;23.302;2023-04-08T05:20:55;95849.84;;;3.86;77.23
70072;BME280;57434;42.794;23.302;2023-04-08T05:21:57;95825.97;;;3.76;76.51
70072;BME280;57434;42.794;23.302;2023-04-08T05:22:58;95750.03;;;3.32;76.34
70072;BME280;57434;42.794;23.302;2023-04-08T05:24:00;95797.44;;;3.75;76.40
70072;BME280;57434;42.794;23.302;2023-04-08T05:25:03;95698.41;;;2.84;76.54
70072;BME280;57434;42.794;23.302;2023-04-08T05:26:08;95847.50;;;3.85;76.68
70072;BME280;57434;42.794;23.302;2023-04-08T05:27:09;95834.06;;;3.96;77.09
70072;BME280;57434;42.794;23.302;2023-04-08T05:28:11;95810.53;;;3.88;77.05
70072;BME280;57434;42.794;23.302;2023-04-08T05:29:13;95779.22;;;3.74;77.10
70072;BME280;57434;42.794;23.302;2023-04-08T05:30:15;95827.19;;;4.13;77.08
70072;BME280;57434;42.794;23.302;2023-04-08T05:31:17;95816.97;;;4.10;76.77
70072;BME280;57434;42.794;23.302;2023-04-08T05:32:19;95828.50;;;4.08;76.37
70072;BME280;57434;42.794;23.302;2023-04-08T05:33:21;95828.47;;;4.21;75.92
70072;BME280;57434;42.794;23.302;2023-04-08T05:34:23;95721.88;;;3.33;75.65
70072;BME280;57434;42.794;23.302;2023-04-08T05:35:25;95829.72;;;3.95;75.32